CL35 weather

Warner Springs Gliderport Airport
Warner Springs, California, United States

Public forecast

Using degrees Fahrenheit for public forecast. Weather courtesy of forecast.io.

Closest aviation weather report (METAR) to Warner Springs Gliderport Airport

Closest report is Ramona Airport, 19.0 nm (35.3 km) SW. Retrieved 2020/03/30 18:53 UTC (23 minutes ago):

KRNM 301853Z 29007KT 10SM CLR 17/09 A3022 RMK AO2 SLP228 T01720089

Closest aviation forecast (TAF) to Warner Springs Gliderport Airport

Closest forecast is Mc Clellan-Palomar Airport, 31.8 nm (58.9 km) WSW. Retrieved 2020/03/30 18:22 UTC (54 minutes ago):

TAF KCRQ 301720Z 3018/3118 VRB03KT P6SM FEW025 FM301900 26008KT P6SM SKC FM310300 VRB02KT P6SM SCT012 TEMPO 3111/3115 4SM BR BKN008 FM311600 VRB03KT P6SM FEW020